createdAt,value
2019-05-28T00:01:23.791Z,2.10
2019-05-28T00:03:54.001Z,2.50
2019-05-28T00:06:24.359Z,3.40
2019-05-28T00:08:54.838Z,3.27
2019-05-28T00:11:25.050Z,3.33
2019-05-28T00:13:55.337Z,3.00
2019-05-28T00:16:25.605Z,3.20
2019-05-28T00:18:55.832Z,3.10
2019-05-28T00:21:26.233Z,3.13
2019-05-28T00:23:56.453Z,2.60
2019-05-28T00:26:26.789Z,3.53
2019-05-28T00:28:57.429Z,2.90
2019-05-28T00:31:28.051Z,2.50
2019-05-28T00:33:58.509Z,3.20
2019-05-28T00:36:28.808Z,2.80
2019-05-28T00:38:59.037Z,2.73
2019-05-28T00:41:29.485Z,2.97
2019-05-28T00:43:59.791Z,2.57
2019-05-28T00:46:30.085Z,2.90
2019-05-28T00:49:00.473Z,2.90
2019-05-28T00:51:32.013Z,3.43
2019-05-28T00:54:02.487Z,3.20
2019-05-28T00:56:33.314Z,2.60
2019-05-28T00:59:04.061Z,2.73
2019-05-28T01:01:34.438Z,3.03
2019-05-28T01:04:04.977Z,2.60
2019-05-28T01:06:35.465Z,2.87
2019-05-28T01:09:07.709Z,2.50
2019-05-28T01:11:38.173Z,2.70
2019-05-28T01:14:08.742Z,2.90
2019-05-28T01:16:38.957Z,2.93
2019-05-28T01:19:09.280Z,2.73
2019-05-28T01:21:42.326Z,2.73
2019-05-28T01:24:11.507Z,2.30
2019-05-28T01:26:41.804Z,2.77
2019-05-28T01:29:12.184Z,2.50
2019-05-28T01:31:42.513Z,2.10
2019-05-28T01:34:12.795Z,2.30
2019-05-28T01:36:43.168Z,2.20
2019-05-28T01:39:13.501Z,2.20
2019-05-28T01:41:43.781Z,2.37
2019-05-28T01:44:14.006Z,2.43
2019-05-28T01:46:44.353Z,2.60
2019-05-28T01:49:14.849Z,2.27
2019-05-28T01:51:45.124Z,2.30
2019-05-28T01:54:15.437Z,2.60
2019-05-28T01:56:46.085Z,2.37
2019-05-28T01:59:16.480Z,3.10
2019-05-28T02:01:46.977Z,2.40
2019-05-28T02:04:17.432Z,1.87
2019-05-28T02:06:47.650Z,2.40
2019-05-28T02:09:17.948Z,2.37
2019-05-28T02:11:48.229Z,1.83
2019-05-28T02:14:18.697Z,2.60
2019-05-28T02:16:49.080Z,2.27
2019-05-28T02:19:19.743Z,2.47
2019-05-28T02:21:50.022Z,2.50
2019-05-28T02:24:20.394Z,2.27
2019-05-28T02:26:50.708Z,2.60
2019-05-28T02:29:21.413Z,2.40
2019-05-28T02:31:51.812Z,2.30
2019-05-28T02:34:22.085Z,2.07
2019-05-28T02:36:52.465Z,2.23
2019-05-28T02:39:22.840Z,1.93
2019-05-28T02:41:53.165Z,2.30
2019-05-28T02:44:23.573Z,2.43
2019-05-28T02:46:53.850Z,2.70
2019-05-28T02:49:24.158Z,2.40
2019-05-28T02:51:54.897Z,2.10
2019-05-28T02:54:25.486Z,2.40
2019-05-28T02:56:56.793Z,2.37
2019-05-28T02:59:29.761Z,2.03
2019-05-28T03:02:02.729Z,2.53
2019-05-28T03:04:35.752Z,2.20
2019-05-28T03:07:08.645Z,2.43
2019-05-28T03:09:41.057Z,2.67
2019-05-28T03:12:11.378Z,2.43
2019-05-28T03:14:41.765Z,2.23
2019-05-28T03:17:12.301Z,2.60
2019-05-28T03:19:43.143Z,2.30
2019-05-28T03:22:15.472Z,2.30
2019-05-28T03:24:48.219Z,3.53
2019-05-28T03:27:18.775Z,2.27
2019-05-28T03:29:49.173Z,2.87
2019-05-28T03:32:19.807Z,2.50
2019-05-28T03:34:50.258Z,2.27
2019-05-28T03:37:21.027Z,2.30
2019-05-28T03:39:52.521Z,2.00
2019-05-28T03:42:22.823Z,2.13
2019-05-28T03:44:53.501Z,2.63
2019-05-28T03:47:23.886Z,2.60
2019-05-28T03:49:54.401Z,2.43
2019-05-28T03:52:25.189Z,2.47
2019-05-28T03:54:55.466Z,2.40
2019-05-28T03:57:25.870Z,2.10
2019-05-28T03:59:58.009Z,2.20
2019-05-28T04:02:28.072Z,2.47
2019-05-28T04:04:58.225Z,1.90
2019-05-28T04:07:28.521Z,2.77
2019-05-28T04:09:59.021Z,2.43
2019-05-28T04:12:29.420Z,2.20
2019-05-28T04:14:59.706Z,2.67
2019-05-28T04:17:30.446Z,3.03
2019-05-28T04:20:00.932Z,2.80
2019-05-28T04:22:31.220Z,2.37
2019-05-28T04:25:01.775Z,2.57
2019-05-28T04:27:32.333Z,1.83
2019-05-28T04:30:03.469Z,2.13
2019-05-28T04:32:40.311Z,2.30
2019-05-28T04:35:07.609Z,2.70
2019-05-28T04:37:37.996Z,2.40
2019-05-28T04:40:09.150Z,3.33
2019-05-28T04:42:39.561Z,2.30
2019-05-28T04:45:10.478Z,2.30
2019-05-28T04:47:41.119Z,2.43
2019-05-28T04:50:11.848Z,2.33
2019-05-28T04:52:42.286Z,2.57
2019-05-28T04:55:13.285Z,2.10
2019-05-28T04:57:43.859Z,2.00
2019-05-28T05:00:14.706Z,2.27
2019-05-28T05:02:58.989Z,1.93
2019-05-28T05:05:17.156Z,2.33
2019-05-28T05:07:47.505Z,2.40
2019-05-28T05:10:19.339Z,2.10
2019-05-28T05:12:49.841Z,2.30
2019-05-28T05:15:20.218Z,2.20
2019-05-28T05:17:50.440Z,2.33
2019-05-28T05:20:21.136Z,1.87
2019-05-28T05:22:51.415Z,1.70
2019-05-28T05:25:22.065Z,2.30
2019-05-28T05:27:52.354Z,2.00
2019-05-28T05:30:22.741Z,2.27
2019-05-28T05:32:53.190Z,1.87
2019-05-28T05:35:24.210Z,2.37
2019-05-28T05:37:54.683Z,2.60
2019-05-28T05:40:25.169Z,1.63
2019-05-28T05:42:55.728Z,1.77
2019-05-28T05:45:25.953Z,1.90
2019-05-28T05:47:56.243Z,2.40
2019-05-28T05:50:26.541Z,2.03
2019-05-28T05:52:56.920Z,1.70
2019-05-28T05:55:27.294Z,1.90
2019-05-28T05:57:57.509Z,2.07
2019-05-28T06:00:27.851Z,1.90
2019-05-28T06:02:58.249Z,2.17
2019-05-28T06:05:28.551Z,1.80
2019-05-28T06:07:59.092Z,1.93
2019-05-28T06:10:30.340Z,1.80
2019-05-28T06:13:01.065Z,1.80
2019-05-28T06:15:31.430Z,1.80
2019-05-28T06:18:01.730Z,2.00
2019-05-28T06:20:32.238Z,1.60
2019-05-28T06:23:02.705Z,1.80
2019-05-28T06:25:33.204Z,1.90
2019-05-28T06:28:03.709Z,1.77
2019-05-28T06:30:34.478Z,1.47
2019-05-28T06:33:05.121Z,1.40
2019-05-28T06:35:35.529Z,1.77
2019-05-28T06:38:06.173Z,2.13
2019-05-28T06:40:36.641Z,1.50
2019-05-28T06:43:07.017Z,2.00
2019-05-28T06:45:37.313Z,1.70
2019-05-28T06:48:07.757Z,1.63
2019-05-28T06:50:38.115Z,1.63
2019-05-28T06:53:08.553Z,1.70
2019-05-28T06:55:38.847Z,1.83
2019-05-28T06:58:09.285Z,1.93
2019-05-28T07:00:39.740Z,1.60
2019-05-28T07:03:10.210Z,1.50
2019-05-28T07:05:41.273Z,2.00
2019-05-28T07:08:11.868Z,1.87
2019-05-28T07:10:56.551Z,1.63
2019-05-28T07:13:14.941Z,1.43
2019-05-28T07:15:45.499Z,1.30
2019-05-28T07:18:17.206Z,1.07
2019-05-28T07:20:47.589Z,1.40
2019-05-28T07:23:17.902Z,1.40
2019-05-28T07:25:48.277Z,1.30
2019-05-28T07:28:18.593Z,1.53
2019-05-28T07:30:49.234Z,1.70
2019-05-28T07:33:19.600Z,1.50
2019-05-28T07:35:49.835Z,1.30
2019-05-28T07:38:20.389Z,1.30
2019-05-28T07:40:50.766Z,1.47
2019-05-28T07:43:21.150Z,1.60
2019-05-28T07:45:51.580Z,1.30
2019-05-28T07:48:22.136Z,1.50
2019-05-28T07:50:52.746Z,1.37
2019-05-28T07:53:38.411Z,1.60
2019-05-28T07:55:55.459Z,1.43
2019-05-28T07:58:26.238Z,1.60
2019-05-28T08:00:56.740Z,1.23
2019-05-28T08:03:27.276Z,1.47
2019-05-28T08:05:57.745Z,1.60
2019-05-28T08:08:28.450Z,1.53
2019-05-28T08:10:59.217Z,1.53
2019-05-28T08:13:40.283Z,1.10
2019-05-28T08:16:17.466Z,1.37
2019-05-28T08:18:34.141Z,1.30
2019-05-28T08:21:04.625Z,1.27
2019-05-28T08:23:34.946Z,1.70
2019-05-28T08:26:05.725Z,1.60
2019-05-28T08:28:36.177Z,1.60
2019-05-28T08:31:15.445Z,1.37
2019-05-28T08:33:38.756Z,1.63
2019-05-28T08:36:09.306Z,1.20
2019-05-28T08:38:39.857Z,1.33
2019-05-28T08:41:10.204Z,1.20
2019-05-28T08:43:40.879Z,1.10
2019-05-28T08:46:11.482Z,1.67
2019-05-28T08:48:42.018Z,1.00
2019-05-28T08:51:12.681Z,1.00
2019-05-28T08:53:43.067Z,1.03
2019-05-28T08:56:13.714Z,1.10
2019-05-28T08:58:44.005Z,1.20
2019-05-28T09:01:14.408Z,1.10
2019-05-28T09:03:44.976Z,1.20
2019-05-28T09:06:15.360Z,1.03
2019-05-28T09:08:46.053Z,1.17
2019-05-28T09:11:17.443Z,1.50
2019-05-28T09:13:48.015Z,1.20
2019-05-28T09:16:18.509Z,0.90
2019-05-28T09:18:48.797Z,1.50
2019-05-28T09:21:19.162Z,1.27
2019-05-28T09:23:49.792Z,1.07
2019-05-28T09:26:20.326Z,1.10
2019-05-28T09:28:50.747Z,1.40
2019-05-28T09:31:21.228Z,1.30
2019-05-28T09:33:51.570Z,1.30
2019-05-28T09:36:21.874Z,1.13
2019-05-28T09:38:52.164Z,1.40
2019-05-28T09:41:22.468Z,1.37
2019-05-28T09:43:52.829Z,1.30
2019-05-28T09:46:23.172Z,1.63
2019-05-28T09:48:53.702Z,1.30
2019-05-28T09:51:24.217Z,0.87
2019-05-28T09:53:54.601Z,1.70
2019-05-28T09:56:25.985Z,1.00
2019-05-28T09:58:56.573Z,1.30
2019-05-28T10:01:27.633Z,1.30
2019-05-28T10:03:58.478Z,1.20
2019-05-28T10:06:37.325Z,2.23
2019-05-28T10:09:01.506Z,1.53
2019-05-28T10:11:31.806Z,1.87
2019-05-28T10:14:02.426Z,1.07
2019-05-28T10:16:33.018Z,1.20
2019-05-28T10:19:03.404Z,1.07
2019-05-28T10:21:34.359Z,0.93
2019-05-28T10:24:05.181Z,1.20
2019-05-28T10:26:35.546Z,1.17
2019-05-28T10:29:06.002Z,1.27
2019-05-28T10:31:36.470Z,1.17
2019-05-28T10:34:06.757Z,1.17
2019-05-28T10:36:38.105Z,1.27
2019-05-28T10:39:09.478Z,1.03
2019-05-28T10:41:39.922Z,1.40
2019-05-28T10:44:10.454Z,1.57
2019-05-28T10:46:41.018Z,1.10
2019-05-28T10:49:11.752Z,1.17
2019-05-28T10:51:42.626Z,1.33
2019-05-28T10:54:13.115Z,1.07
2019-05-28T10:56:43.587Z,1.50
2019-05-28T10:59:14.045Z,1.63
2019-05-28T11:01:44.356Z,1.53
2019-05-28T11:04:14.913Z,1.37
2019-05-28T11:06:51.931Z,1.33
2019-05-28T11:09:17.637Z,1.20
2019-05-28T11:11:48.013Z,2.03
2019-05-28T11:14:18.644Z,1.60
2019-05-28T11:16:49.135Z,1.30
2019-05-28T11:19:19.785Z,1.23
2019-05-28T11:21:50.620Z,1.80
2019-05-28T11:24:21.343Z,1.90
2019-05-28T11:26:52.638Z,1.50
2019-05-28T11:29:22.985Z,1.60
2019-05-28T11:31:54.087Z,1.40
2019-05-28T11:34:24.906Z,1.80
2019-05-28T11:37:09.085Z,1.60
2019-05-28T11:39:27.521Z,1.70
2019-05-28T11:41:57.875Z,1.37
2019-05-28T11:44:28.463Z,1.60
2019-05-28T11:46:58.863Z,1.40
2019-05-28T11:49:29.253Z,1.43
2019-05-28T11:51:59.626Z,1.43
2019-05-28T11:54:29.939Z,2.07
2019-05-28T11:57:00.499Z,1.90
2019-05-28T11:59:31.017Z,1.43
2019-05-28T12:02:05.007Z,2.00
2019-05-28T12:04:33.740Z,1.70
2019-05-28T12:07:04.367Z,1.40
2019-05-28T12:09:34.845Z,1.60
2019-05-28T12:12:05.783Z,1.90
2019-05-28T12:14:36.314Z,2.00
2019-05-28T12:17:06.670Z,2.00
2019-05-28T12:19:37.205Z,1.57
2019-05-28T12:22:07.668Z,2.13
2019-05-28T12:24:38.328Z,1.97
2019-05-28T12:27:08.727Z,1.70
2019-05-28T12:29:51.593Z,1.37
2019-05-28T12:32:11.641Z,1.60
2019-05-28T12:34:42.293Z,1.70
2019-05-28T12:37:13.031Z,1.77
2019-05-28T12:39:43.716Z,2.07
2019-05-28T12:42:14.185Z,1.67
2019-05-28T12:44:44.569Z,1.83
2019-05-28T12:47:15.385Z,1.50
2019-05-28T12:49:45.662Z,1.70
2019-05-28T12:52:16.229Z,1.60
2019-05-28T12:54:46.661Z,1.33
2019-05-28T12:57:17.481Z,1.63
2019-05-28T12:59:47.913Z,1.43
2019-05-28T13:02:18.514Z,1.40
2019-05-28T13:04:48.966Z,1.47
2019-05-28T13:07:19.274Z,1.27
2019-05-28T13:09:49.617Z,1.23
2019-05-28T13:12:19.934Z,1.30
2019-05-28T13:14:50.482Z,1.40
2019-05-28T13:17:20.992Z,1.60
2019-05-28T13:19:51.667Z,1.33
2019-05-28T13:22:21.993Z,0.90
2019-05-28T13:24:52.293Z,1.20
2019-05-28T13:27:22.602Z,1.40
2019-05-28T13:29:53.146Z,1.70
2019-05-28T13:32:23.742Z,1.17
2019-05-28T13:34:54.406Z,1.37
2019-05-28T13:37:24.767Z,1.10
2019-05-28T13:39:55.375Z,1.40
2019-05-28T13:42:25.843Z,1.40
2019-05-28T13:44:56.337Z,1.40
2019-05-28T13:47:33.573Z,1.30
2019-05-28T13:49:58.631Z,1.30
2019-05-28T13:52:28.931Z,1.40
2019-05-28T13:54:59.287Z,0.80
2019-05-28T13:57:29.523Z,1.23
2019-05-28T13:59:59.879Z,1.20
2019-05-28T14:02:30.424Z,1.00
2019-05-28T14:05:01.502Z,1.00
2019-05-28T14:07:31.885Z,1.10
2019-05-28T14:10:02.294Z,1.30
2019-05-28T14:12:32.686Z,1.30
2019-05-28T14:15:03.165Z,0.97
2019-05-28T14:17:33.548Z,0.97
2019-05-28T14:20:06.757Z,1.30
2019-05-28T14:22:37.664Z,1.20
2019-05-28T14:25:09.586Z,0.90
2019-05-28T14:27:40.114Z,0.90
2019-05-28T14:30:13.481Z,1.00
2019-05-28T14:32:44.706Z,1.20
2019-05-28T14:35:16.917Z,1.20
2019-05-28T14:37:47.373Z,1.57
2019-05-28T14:40:23.792Z,1.10
2019-05-28T14:42:52.152Z,1.20
2019-05-28T14:45:22.796Z,1.10
2019-05-28T14:47:53.430Z,0.73
2019-05-28T14:50:23.887Z,1.47
2019-05-28T14:52:54.570Z,1.37
2019-05-28T14:55:25.012Z,1.60
2019-05-28T14:57:55.466Z,1.60
2019-05-28T15:00:25.949Z,1.50
2019-05-28T15:02:56.302Z,1.50
2019-05-28T15:05:26.842Z,1.30
2019-05-28T15:07:57.446Z,1.33
2019-05-28T15:10:27.993Z,1.70
2019-05-28T15:12:58.508Z,1.20
2019-05-28T15:15:35.849Z,1.20
2019-05-28T15:18:00.961Z,1.40
2019-05-28T15:20:31.608Z,1.40
2019-05-28T15:23:01.901Z,1.40
2019-05-28T15:25:32.348Z,1.50
2019-05-28T15:28:02.980Z,1.60
2019-05-28T15:30:33.682Z,1.63
2019-05-28T15:33:06.291Z,1.27
2019-05-28T15:35:36.881Z,1.07
2019-05-28T15:38:07.370Z,1.30
2019-05-28T15:40:38.381Z,1.47
2019-05-28T15:43:11.001Z,1.30
2019-05-28T15:45:41.452Z,1.40
2019-05-28T15:48:12.890Z,1.40
2019-05-28T15:50:43.421Z,1.47
2019-05-28T15:53:13.743Z,1.33
2019-05-28T15:55:44.097Z,1.30
2019-05-28T15:58:14.325Z,1.30
2019-05-28T16:00:44.710Z,1.40
2019-05-28T16:03:15.097Z,1.40
2019-05-28T16:05:45.469Z,1.30
2019-05-28T16:08:15.757Z,2.43
2019-05-28T16:10:46.712Z,3.23
2019-05-28T16:13:17.307Z,1.70
2019-05-28T16:15:48.085Z,1.60
2019-05-28T16:18:18.581Z,1.80
2019-05-28T16:20:49.247Z,1.30
2019-05-28T16:23:19.849Z,1.40
2019-05-28T16:25:50.153Z,1.47
2019-05-28T16:28:20.638Z,1.53
2019-05-28T16:30:51.130Z,1.43
2019-05-28T16:33:21.521Z,1.57
2019-05-28T16:35:51.906Z,1.23
2019-05-28T16:38:22.205Z,2.17
2019-05-28T16:40:52.592Z,1.30
2019-05-28T16:43:23.073Z,1.63
2019-05-28T16:45:53.613Z,1.30
2019-05-28T16:48:24.205Z,1.37
2019-05-28T16:50:54.815Z,1.40
2019-05-28T16:53:25.221Z,1.50
2019-05-28T16:55:55.601Z,1.33
2019-05-28T16:58:26.188Z,1.30
2019-05-28T17:01:04.715Z,1.57
2019-05-28T17:03:29.017Z,1.30
2019-05-28T17:05:59.454Z,1.57
2019-05-28T17:08:29.913Z,1.60
2019-05-28T17:11:00.244Z,1.50
2019-05-28T17:13:30.498Z,1.30
2019-05-28T17:16:01.162Z,1.60
2019-05-28T17:18:31.658Z,1.40
2019-05-28T17:21:02.329Z,1.47
2019-05-28T17:23:32.776Z,1.70
2019-05-28T17:26:03.423Z,1.30
2019-05-28T17:28:33.993Z,1.57
2019-05-28T17:31:04.546Z,1.60
2019-05-28T17:33:34.822Z,1.30
2019-05-28T17:36:05.582Z,1.43
2019-05-28T17:38:36.034Z,1.63
2019-05-28T17:41:06.561Z,1.30
2019-05-28T17:43:37.255Z,1.40
2019-05-28T17:46:07.717Z,1.10
2019-05-28T17:48:37.933Z,1.57
2019-05-28T17:51:08.230Z,1.70
2019-05-28T17:53:38.602Z,1.33
2019-05-28T17:56:09.093Z,1.77
2019-05-28T17:58:39.656Z,1.67
2019-05-28T18:01:10.194Z,1.97
2019-05-28T18:03:40.702Z,1.97
2019-05-28T18:06:11.134Z,1.50
2019-05-28T18:08:41.350Z,1.43
2019-05-28T18:11:11.836Z,1.50
2019-05-28T18:13:42.351Z,1.90
2019-05-28T18:16:12.650Z,1.93
2019-05-28T18:18:42.939Z,1.50
2019-05-28T18:21:13.423Z,1.50
2019-05-28T18:23:43.722Z,2.00
2019-05-28T18:26:14.137Z,1.70
2019-05-28T18:28:46.029Z,1.70
2019-05-28T18:31:16.598Z,1.90
2019-05-28T18:33:46.906Z,1.70
2019-05-28T18:36:17.142Z,1.90
2019-05-28T18:38:47.733Z,1.50
2019-05-28T18:41:21.893Z,1.80
2019-05-28T18:43:50.730Z,2.07
2019-05-28T18:46:21.134Z,1.77
2019-05-28T18:48:51.441Z,2.10
2019-05-28T18:51:22.180Z,2.00
2019-05-28T18:53:52.537Z,2.43
2019-05-28T18:56:23.017Z,1.77
2019-05-28T18:58:53.545Z,1.80
2019-05-28T19:01:23.942Z,1.77
2019-05-28T19:03:54.255Z,2.03
2019-05-28T19:06:24.631Z,2.00
2019-05-28T19:08:54.993Z,2.03
2019-05-28T19:11:37.521Z,1.80
2019-05-28T19:13:57.623Z,1.67
2019-05-28T19:16:28.065Z,1.83
2019-05-28T19:18:58.446Z,1.70
2019-05-28T19:21:29.249Z,2.00
2019-05-28T19:23:59.632Z,2.07
2019-05-28T19:26:30.265Z,1.87
2019-05-28T19:29:00.637Z,1.93
2019-05-28T19:31:31.271Z,1.53
2019-05-28T19:34:01.738Z,2.03
2019-05-28T19:36:32.854Z,2.03
2019-05-28T19:39:05.073Z,2.10
2019-05-28T19:41:35.717Z,2.00
2019-05-28T19:44:06.184Z,1.90
2019-05-28T19:46:36.541Z,2.20
2019-05-28T19:49:06.825Z,2.30
2019-05-28T19:51:37.759Z,2.27
2019-05-28T19:54:08.191Z,2.10
2019-05-28T19:56:38.562Z,1.93
2019-05-28T19:59:08.850Z,2.50
2019-05-28T20:01:39.317Z,1.87
2019-05-28T20:04:09.718Z,2.27
2019-05-28T20:06:40.879Z,2.77
2019-05-28T20:09:11.349Z,2.37
2019-05-28T20:11:42.717Z,2.60
2019-05-28T20:14:13.493Z,2.97
2019-05-28T20:16:45.046Z,2.50
2019-05-28T20:19:15.761Z,2.33
2019-05-28T20:21:49.470Z,2.70
2019-05-28T20:24:18.178Z,2.40
2019-05-28T20:26:49.968Z,3.23
2019-05-28T20:29:21.820Z,2.87
2019-05-28T20:31:52.249Z,2.53
2019-05-28T20:34:22.621Z,2.60
2019-05-28T20:36:52.999Z,2.70
2019-05-28T20:39:23.645Z,2.90
2019-05-28T20:41:54.585Z,2.80
2019-05-28T20:44:24.869Z,2.30
2019-05-28T20:46:55.337Z,2.17
2019-05-28T20:49:25.797Z,3.07
2019-05-28T20:51:56.101Z,2.77
2019-05-28T20:54:26.248Z,2.47
2019-05-28T20:56:57.938Z,2.77
2019-05-28T20:59:28.391Z,2.70
2019-05-28T21:01:58.789Z,2.60
2019-05-28T21:04:29.249Z,2.40
2019-05-28T21:06:59.632Z,2.70
2019-05-28T21:09:30.033Z,2.83
2019-05-28T21:12:00.494Z,3.07
2019-05-28T21:14:30.953Z,3.13
2019-05-28T21:17:01.393Z,3.57
2019-05-28T21:19:32.028Z,3.33
2019-05-28T21:22:02.705Z,3.40
2019-05-28T21:24:33.110Z,3.23
2019-05-28T21:27:03.490Z,3.23
2019-05-28T21:29:33.874Z,3.60
2019-05-28T21:32:04.794Z,4.10
2019-05-28T21:34:35.187Z,3.53
2019-05-28T21:37:05.841Z,3.60
2019-05-28T21:39:36.523Z,3.23
2019-05-28T21:42:07.189Z,3.20
2019-05-28T21:44:37.565Z,3.37
2019-05-28T21:47:08.087Z,3.07
2019-05-28T21:49:39.101Z,3.60
2019-05-28T21:52:09.838Z,3.47
2019-05-28T21:54:40.187Z,3.00
2019-05-28T21:57:10.604Z,3.17
2019-05-28T21:59:41.005Z,3.80
2019-05-28T22:02:11.608Z,3.80
2019-05-28T22:04:42.573Z,3.40
2019-05-28T22:07:13.451Z,3.83
2019-05-28T22:09:43.779Z,4.53
2019-05-28T22:12:14.229Z,3.43
2019-05-28T22:14:44.911Z,3.70
2019-05-28T22:17:15.368Z,3.40
2019-05-28T22:19:46.072Z,3.67
2019-05-28T22:22:16.468Z,3.70
2019-05-28T22:24:46.849Z,3.80
2019-05-28T22:27:17.295Z,3.43
2019-05-28T22:29:48.142Z,3.60
2019-05-28T22:32:18.667Z,3.83
2019-05-28T22:34:49.154Z,3.23
2019-05-28T22:37:19.708Z,5.00
2019-05-28T22:39:50.174Z,3.93
2019-05-28T22:42:20.643Z,3.27
2019-05-28T22:44:51.025Z,3.37
2019-05-28T22:47:21.401Z,2.97
2019-05-28T22:49:51.710Z,3.77
2019-05-28T22:52:22.105Z,2.97
2019-05-28T22:54:52.616Z,2.97
2019-05-28T22:57:22.917Z,2.90
2019-05-28T22:59:53.304Z,3.73
2019-05-28T23:02:24.109Z,5.07
2019-05-28T23:04:54.424Z,4.20
2019-05-28T23:07:24.917Z,4.70
2019-05-28T23:09:55.312Z,4.90
2019-05-28T23:12:25.608Z,4.30
2019-05-28T23:14:56.152Z,5.90
2019-05-28T23:17:26.483Z,5.43
2019-05-28T23:19:57.151Z,6.17
2019-05-28T23:22:27.582Z,6.10
2019-05-28T23:24:57.849Z,5.77
2019-05-28T23:27:28.220Z,5.73
2019-05-28T23:29:58.500Z,5.07
2019-05-28T23:32:29.182Z,4.67
2019-05-28T23:34:59.473Z,4.60
2019-05-28T23:37:29.956Z,5.60
2019-05-28T23:40:00.482Z,5.17
2019-05-28T23:42:31.293Z,5.17
2019-05-28T23:45:01.662Z,5.40
2019-05-28T23:47:32.120Z,5.43
2019-05-28T23:50:02.422Z,4.57
2019-05-28T23:52:32.653Z,5.13
2019-05-28T23:55:02.937Z,5.33
2019-05-28T23:57:33.243Z,5.00
